sensor_id;sensor_type;location;lat;lon;timestamp;P1;durP1;ratioP1;P2;durP2;ratioP2
70122;SDS011;57489;37.404;24.920;2022-11-15T00:02:51;7.00;;;3.17;;
70122;SDS011;57489;37.404;24.920;2022-11-15T00:07:52;6.72;;;3.10;;
70122;SDS011;57489;37.404;24.920;2022-11-15T00:12:53;9.87;;;3.13;;
70122;SDS011;57489;37.404;24.920;2022-11-15T00:17:53;6.70;;;3.20;;
70122;SDS011;57489;37.404;24.920;2022-11-15T00:22:54;9.67;;;3.23;;
70122;SDS011;57489;37.404;24.920;2022-11-15T00:27:55;6.57;;;3.10;;
70122;SDS011;57489;37.404;24.920;2022-11-15T00:32:56;6.80;;;2.97;;
70122;SDS011;57489;37.404;24.920;2022-11-15T00:37:56;6.43;;;2.90;;
70122;SDS011;57489;37.404;24.920;2022-11-15T00:42:57;6.40;;;2.97;;
70122;SDS011;57489;37.404;24.920;2022-11-15T00:47:57;6.73;;;3.17;;
70122;SDS011;57489;37.404;24.920;2022-11-15T00:52:58;6.27;;;2.77;;
70122;SDS011;57489;37.404;24.920;2022-11-15T00:57:58;6.50;;;2.87;;
70122;SDS011;57489;37.404;24.920;2022-11-15T01:03:00;7.53;;;3.20;;
70122;SDS011;57489;37.404;24.920;2022-11-15T01:08:00;8.03;;;3.87;;
70122;SDS011;57489;37.404;24.920;2022-11-15T01:13:01;8.57;;;3.33;;
70122;SDS011;57489;37.404;24.920;2022-11-15T01:18:01;8.40;;;3.23;;
70122;SDS011;57489;37.404;24.920;2022-11-15T01:23:02;6.03;;;3.03;;
70122;SDS011;57489;37.404;24.920;2022-11-15T01:28:02;7.27;;;3.50;;
70122;SDS011;57489;37.404;24.920;2022-11-15T01:33:03;7.03;;;3.57;;
70122;SDS011;57489;37.404;24.920;2022-11-15T01:38:03;5.87;;;2.93;;
70122;SDS011;57489;37.404;24.920;2022-11-15T01:48:25;6.72;;;3.20;;
70122;SDS011;57489;37.404;24.920;2022-11-15T01:53:31;8.02;;;2.90;;
70122;SDS011;57489;37.404;24.920;2022-11-15T01:58:34;6.57;;;2.83;;
70122;SDS011;57489;37.404;24.920;2022-11-15T02:03:38;6.63;;;3.50;;
70122;SDS011;57489;37.404;24.920;2022-11-15T02:08:44;7.10;;;3.45;;
70122;SDS011;57489;37.404;24.920;2022-11-15T02:13:44;7.90;;;3.80;;
70122;SDS011;57489;37.404;24.920;2022-11-15T02:18:57;6.40;;;3.22;;
70122;SDS011;57489;37.404;24.920;2022-11-15T02:24:17;6.57;;;3.27;;
70122;SDS011;57489;37.404;24.920;2022-11-15T02:35:00;6.93;;;3.40;;
70122;SDS011;57489;37.404;24.920;2022-11-15T02:40:16;6.67;;;3.50;;
70122;SDS011;57489;37.404;24.920;2022-11-15T02:45:28;7.13;;;3.40;;
70122;SDS011;57489;37.404;24.920;2022-11-15T02:50:33;7.03;;;3.67;;
70122;SDS011;57489;37.404;24.920;2022-11-15T02:55:35;6.03;;;3.13;;
70122;SDS011;57489;37.404;24.920;2022-11-15T03:00:40;6.33;;;3.50;;
70122;SDS011;57489;37.404;24.920;2022-11-15T03:11:15;10.13;;;3.50;;
70122;SDS011;57489;37.404;24.920;2022-11-15T03:16:24;6.80;;;3.33;;
70122;SDS011;57489;37.404;24.920;2022-11-15T03:21:28;6.65;;;3.58;;
70122;SDS011;57489;37.404;24.920;2022-11-15T03:26:31;7.80;;;3.38;;
70122;SDS011;57489;37.404;24.920;2022-11-15T03:31:35;7.20;;;3.43;;
70122;SDS011;57489;37.404;24.920;2022-11-15T03:36:38;8.85;;;3.35;;
70122;SDS011;57489;37.404;24.920;2022-11-15T03:41:43;8.37;;;3.23;;
70122;SDS011;57489;37.404;24.920;2022-11-15T03:52:02;8.73;;;3.80;;
70122;SDS011;57489;37.404;24.920;2022-11-15T03:57:04;6.57;;;3.60;;
70122;SDS011;57489;37.404;24.920;2022-11-15T04:02:04;7.20;;;3.43;;
70122;SDS011;57489;37.404;24.920;2022-11-15T04:07:05;7.23;;;3.07;;
70122;SDS011;57489;37.404;24.920;2022-11-15T04:12:06;6.77;;;3.60;;
70122;SDS011;57489;37.404;24.920;2022-11-15T04:17:06;6.63;;;3.57;;
70122;SDS011;57489;37.404;24.920;2022-11-15T04:22:07;7.20;;;3.70;;
70122;SDS011;57489;37.404;24.920;2022-11-15T04:27:08;5.97;;;3.17;;
70122;SDS011;57489;37.404;24.920;2022-11-15T04:32:08;7.40;;;3.33;;
70122;SDS011;57489;37.404;24.920;2022-11-15T04:37:08;10.60;;;3.37;;
70122;SDS011;57489;37.404;24.920;2022-11-15T04:42:09;7.67;;;3.57;;
70122;SDS011;57489;37.404;24.920;2022-11-15T04:47:11;8.95;;;3.08;;
70122;SDS011;57489;37.404;24.920;2022-11-15T04:52:11;6.40;;;3.50;;
70122;SDS011;57489;37.404;24.920;2022-11-15T04:57:11;8.17;;;3.70;;
70122;SDS011;57489;37.404;24.920;2022-11-15T05:02:12;8.53;;;3.50;;
70122;SDS011;57489;37.404;24.920;2022-11-15T05:07:12;7.50;;;3.60;;
70122;SDS011;57489;37.404;24.920;2022-11-15T05:12:13;7.33;;;3.67;;
70122;SDS011;57489;37.404;24.920;2022-11-15T05:17:13;8.13;;;3.87;;
70122;SDS011;57489;37.404;24.920;2022-11-15T05:22:14;7.33;;;3.90;;
70122;SDS011;57489;37.404;24.920;2022-11-15T05:27:14;7.90;;;3.60;;
70122;SDS011;57489;37.404;24.920;2022-11-15T05:32:15;19.57;;;5.70;;
70122;SDS011;57489;37.404;24.920;2022-11-15T05:37:17;22.30;;;6.10;;
70122;SDS011;57489;37.404;24.920;2022-11-15T05:42:18;24.30;;;5.83;;
70122;SDS011;57489;37.404;24.920;2022-11-15T05:47:23;24.00;;;5.67;;
70122;SDS011;57489;37.404;24.920;2022-11-15T05:52:28;15.73;;;5.90;;
70122;SDS011;57489;37.404;24.920;2022-11-15T05:57:31;18.37;;;5.97;;
70122;SDS011;57489;37.404;24.920;2022-11-15T06:02:31;18.03;;;5.63;;
70122;SDS011;57489;37.404;24.920;2022-11-15T06:07:32;15.83;;;5.67;;
70122;SDS011;57489;37.404;24.920;2022-11-15T06:12:32;19.00;;;5.40;;
70122;SDS011;57489;37.404;24.920;2022-11-15T06:17:33;11.70;;;5.23;;
70122;SDS011;57489;37.404;24.920;2022-11-15T06:22:33;23.57;;;7.13;;
70122;SDS011;57489;37.404;24.920;2022-11-15T06:27:34;23.87;;;8.47;;
70122;SDS011;57489;37.404;24.920;2022-11-15T06:32:34;32.57;;;8.43;;
70122;SDS011;57489;37.404;24.920;2022-11-15T06:37:34;27.40;;;7.73;;
70122;SDS011;57489;37.404;24.920;2022-11-15T06:42:35;26.93;;;8.17;;
70122;SDS011;57489;37.404;24.920;2022-11-15T06:47:36;21.15;;;6.53;;
70122;SDS011;57489;37.404;24.920;2022-11-15T06:52:44;18.73;;;6.40;;
70122;SDS011;57489;37.404;24.920;2022-11-15T06:57:48;16.25;;;6.20;;
70122;SDS011;57489;37.404;24.920;2022-11-15T07:02:52;16.27;;;6.53;;
70122;SDS011;57489;37.404;24.920;2022-11-15T07:07:52;32.10;;;8.70;;
70122;SDS011;57489;37.404;24.920;2022-11-15T07:12:54;30.58;;;8.10;;
70122;SDS011;57489;37.404;24.920;2022-11-15T07:17:55;19.08;;;7.18;;
70122;SDS011;57489;37.404;24.920;2022-11-15T07:23:04;19.37;;;7.27;;
70122;SDS011;57489;37.404;24.920;2022-11-15T07:28:05;29.58;;;8.02;;
70122;SDS011;57489;37.404;24.920;2022-11-15T07:33:05;23.60;;;7.40;;
70122;SDS011;57489;37.404;24.920;2022-11-15T07:38:06;21.87;;;6.37;;
70122;SDS011;57489;37.404;24.920;2022-11-15T07:43:07;20.20;;;7.50;;
70122;SDS011;57489;37.404;24.920;2022-11-15T07:48:08;16.52;;;6.22;;
70122;SDS011;57489;37.404;24.920;2022-11-15T07:53:09;17.27;;;5.40;;
70122;SDS011;57489;37.404;24.920;2022-11-15T07:58:10;15.50;;;5.77;;
70122;SDS011;57489;37.404;24.920;2022-11-15T08:03:12;12.73;;;5.07;;
70122;SDS011;57489;37.404;24.920;2022-11-15T08:08:16;12.70;;;4.45;;
70122;SDS011;57489;37.404;24.920;2022-11-15T08:13:17;10.27;;;4.80;;
70122;SDS011;57489;37.404;24.920;2022-11-15T08:18:17;10.90;;;4.57;;
70122;SDS011;57489;37.404;24.920;2022-11-15T08:23:18;8.87;;;4.60;;
70122;SDS011;57489;37.404;24.920;2022-11-15T08:28:18;15.82;;;4.53;;
70122;SDS011;57489;37.404;24.920;2022-11-15T08:33:19;10.30;;;4.33;;
70122;SDS011;57489;37.404;24.920;2022-11-15T08:38:19;10.50;;;4.60;;
70122;SDS011;57489;37.404;24.920;2022-11-15T08:43:19;10.00;;;4.30;;
70122;SDS011;57489;37.404;24.920;2022-11-15T08:48:20;8.80;;;4.33;;
70122;SDS011;57489;37.404;24.920;2022-11-15T08:53:20;11.60;;;4.60;;
70122;SDS011;57489;37.404;24.920;2022-11-15T08:58:21;9.30;;;4.33;;
70122;SDS011;57489;37.404;24.920;2022-11-15T09:03:21;18.40;;;6.17;;
70122;SDS011;57489;37.404;24.920;2022-11-15T09:08:22;13.57;;;5.35;;
70122;SDS011;57489;37.404;24.920;2022-11-15T09:13:23;11.13;;;5.10;;
70122;SDS011;57489;37.404;24.920;2022-11-15T09:18:24;9.95;;;5.05;;
70122;SDS011;57489;37.404;24.920;2022-11-15T09:23:24;7.83;;;4.33;;
70122;SDS011;57489;37.404;24.920;2022-11-15T09:28:25;9.07;;;4.63;;
70122;SDS011;57489;37.404;24.920;2022-11-15T09:33:27;11.65;;;4.78;;
70122;SDS011;57489;37.404;24.920;2022-11-15T09:38:27;11.30;;;4.30;;
70122;SDS011;57489;37.404;24.920;2022-11-15T09:43:32;10.27;;;4.57;;
70122;SDS011;57489;37.404;24.920;2022-11-15T09:48:57;8.03;;;4.00;;
70122;SDS011;57489;37.404;24.920;2022-11-15T10:04:47;10.27;;;4.17;;
70122;SDS011;57489;37.404;24.920;2022-11-15T10:09:51;8.33;;;3.93;;
70122;SDS011;57489;37.404;24.920;2022-11-15T10:14:58;7.50;;;4.07;;
70122;SDS011;57489;37.404;24.920;2022-11-15T10:25:19;10.60;;;4.40;;
70122;SDS011;57489;37.404;24.920;2022-11-15T10:30:35;11.15;;;4.20;;
70122;SDS011;57489;37.404;24.920;2022-11-15T10:35:37;8.07;;;4.07;;
70122;SDS011;57489;37.404;24.920;2022-11-15T10:40:38;9.60;;;4.47;;
70122;SDS011;57489;37.404;24.920;2022-11-15T10:45:40;9.53;;;4.27;;
70122;SDS011;57489;37.404;24.920;2022-11-15T10:50:45;9.95;;;4.70;;
70122;SDS011;57489;37.404;24.920;2022-11-15T10:55:47;10.15;;;5.20;;
70122;SDS011;57489;37.404;24.920;2022-11-15T11:00:50;9.47;;;4.63;;
70122;SDS011;57489;37.404;24.920;2022-11-15T11:06:03;11.02;;;4.75;;
70122;SDS011;57489;37.404;24.920;2022-11-15T11:11:24;11.45;;;5.38;;
70122;SDS011;57489;37.404;24.920;2022-11-15T11:16:47;10.00;;;4.63;;
70122;SDS011;57489;37.404;24.920;2022-11-15T11:42:55;9.98;;;4.78;;
70122;SDS011;57489;37.404;24.920;2022-11-15T11:48:08;7.80;;;4.35;;
70122;SDS011;57489;37.404;24.920;2022-11-15T12:05:01;9.65;;;4.78;;
70122;SDS011;57489;37.404;24.920;2022-11-15T12:10:19;11.07;;;4.67;;
70122;SDS011;57489;37.404;24.920;2022-11-15T12:16:07;10.48;;;4.43;;
70122;SDS011;57489;37.404;24.920;2022-11-15T12:21:14;15.27;;;4.90;;
70122;SDS011;57489;37.404;24.920;2022-11-15T12:26:25;12.63;;;5.03;;
70122;SDS011;57489;37.404;24.920;2022-11-15T12:36:39;10.80;;;5.00;;
70122;SDS011;57489;37.404;24.920;2022-11-15T12:41:43;12.68;;;4.47;;
70122;SDS011;57489;37.404;24.920;2022-11-15T13:02:15;13.30;;;5.30;;
70122;SDS011;57489;37.404;24.920;2022-11-15T13:17:52;14.93;;;5.53;;
70122;SDS011;57489;37.404;24.920;2022-11-15T13:23:01;13.63;;;5.65;;
70122;SDS011;57489;37.404;24.920;2022-11-15T13:33:20;16.93;;;6.00;;
70122;SDS011;57489;37.404;24.920;2022-11-15T13:38:33;11.88;;;4.90;;
70122;SDS011;57489;37.404;24.920;2022-11-15T13:43:35;16.40;;;6.53;;
70122;SDS011;57489;37.404;24.920;2022-11-15T13:48:36;13.50;;;5.00;;
70122;SDS011;57489;37.404;24.920;2022-11-15T13:53:37;13.43;;;5.80;;
70122;SDS011;57489;37.404;24.920;2022-11-15T13:58:40;12.98;;;5.40;;
70122;SDS011;57489;37.404;24.920;2022-11-15T14:03:54;13.27;;;5.50;;
70122;SDS011;57489;37.404;24.920;2022-11-15T14:08:59;10.48;;;5.35;;
70122;SDS011;57489;37.404;24.920;2022-11-15T14:19:10;11.17;;;5.23;;
70122;SDS011;57489;37.404;24.920;2022-11-15T14:24:21;15.90;;;6.18;;
70122;SDS011;57489;37.404;24.920;2022-11-15T14:29:28;12.77;;;5.80;;
70122;SDS011;57489;37.404;24.920;2022-11-15T14:34:31;12.07;;;5.90;;
70122;SDS011;57489;37.404;24.920;2022-11-15T14:39:32;11.07;;;5.70;;
70122;SDS011;57489;37.404;24.920;2022-11-15T14:44:33;16.25;;;6.05;;
70122;SDS011;57489;37.404;24.920;2022-11-15T14:49:34;18.07;;;7.47;;
70122;SDS011;57489;37.404;24.920;2022-11-15T14:54:35;23.00;;;6.47;;
70122;SDS011;57489;37.404;24.920;2022-11-15T14:59:35;13.37;;;6.13;;
70122;SDS011;57489;37.404;24.920;2022-11-15T15:04:36;19.20;;;6.63;;
70122;SDS011;57489;37.404;24.920;2022-11-15T15:09:36;15.13;;;6.20;;
70122;SDS011;57489;37.404;24.920;2022-11-15T15:14:36;13.97;;;5.80;;
70122;SDS011;57489;37.404;24.920;2022-11-15T15:19:37;15.03;;;6.40;;
70122;SDS011;57489;37.404;24.920;2022-11-15T15:24:37;12.43;;;6.03;;
70122;SDS011;57489;37.404;24.920;2022-11-15T15:29:38;14.93;;;6.33;;
70122;SDS011;57489;37.404;24.920;2022-11-15T15:34:39;15.68;;;7.47;;
70122;SDS011;57489;37.404;24.920;2022-11-15T15:39:40;15.03;;;6.73;;
70122;SDS011;57489;37.404;24.920;2022-11-15T15:44:40;14.33;;;7.27;;
70122;SDS011;57489;37.404;24.920;2022-11-15T15:49:41;16.53;;;7.33;;
70122;SDS011;57489;37.404;24.920;2022-11-15T15:54:41;14.10;;;7.23;;
70122;SDS011;57489;37.404;24.920;2022-11-15T15:59:42;12.33;;;6.70;;
70122;SDS011;57489;37.404;24.920;2022-11-15T16:04:43;16.23;;;7.17;;
70122;SDS011;57489;37.404;24.920;2022-11-15T16:09:43;12.68;;;6.63;;
70122;SDS011;57489;37.404;24.920;2022-11-15T16:14:44;16.90;;;7.40;;
70122;SDS011;57489;37.404;24.920;2022-11-15T16:19:44;16.83;;;6.93;;
70122;SDS011;57489;37.404;24.920;2022-11-15T16:24:44;18.13;;;6.70;;
70122;SDS011;57489;37.404;24.920;2022-11-15T16:29:45;14.90;;;7.23;;
70122;SDS011;57489;37.404;24.920;2022-11-15T16:34:46;14.30;;;6.10;;
70122;SDS011;57489;37.404;24.920;2022-11-15T16:39:47;17.30;;;8.17;;
70122;SDS011;57489;37.404;24.920;2022-11-15T16:44:47;12.00;;;6.20;;
70122;SDS011;57489;37.404;24.920;2022-11-15T16:49:48;17.00;;;7.03;;
70122;SDS011;57489;37.404;24.920;2022-11-15T16:54:49;17.40;;;8.20;;
70122;SDS011;57489;37.404;24.920;2022-11-15T16:59:49;14.93;;;5.83;;
70122;SDS011;57489;37.404;24.920;2022-11-15T17:04:49;13.80;;;6.07;;
70122;SDS011;57489;37.404;24.920;2022-11-15T17:09:50;13.63;;;6.07;;
70122;SDS011;57489;37.404;24.920;2022-11-15T17:14:50;18.47;;;7.13;;
70122;SDS011;57489;37.404;24.920;2022-11-15T17:19:51;19.90;;;6.20;;
70122;SDS011;57489;37.404;24.920;2022-11-15T17:24:52;15.70;;;6.38;;
70122;SDS011;57489;37.404;24.920;2022-11-15T17:29:53;14.27;;;6.43;;
70122;SDS011;57489;37.404;24.920;2022-11-15T17:34:53;12.77;;;6.27;;
70122;SDS011;57489;37.404;24.920;2022-11-15T17:39:53;16.13;;;6.23;;
70122;SDS011;57489;37.404;24.920;2022-11-15T17:44:54;14.70;;;6.33;;
70122;SDS011;57489;37.404;24.920;2022-11-15T17:49:54;18.63;;;6.27;;
70122;SDS011;57489;37.404;24.920;2022-11-15T17:54:55;19.70;;;6.03;;
70122;SDS011;57489;37.404;24.920;2022-11-15T17:59:55;19.33;;;5.97;;
70122;SDS011;57489;37.404;24.920;2022-11-15T18:04:56;16.20;;;5.50;;
70122;SDS011;57489;37.404;24.920;2022-11-15T18:09:56;18.60;;;6.00;;
70122;SDS011;57489;37.404;24.920;2022-11-15T18:14:57;22.13;;;5.70;;
70122;SDS011;57489;37.404;24.920;2022-11-15T18:19:57;15.17;;;6.70;;
70122;SDS011;57489;37.404;24.920;2022-11-15T18:24:58;18.27;;;6.73;;
70122;SDS011;57489;37.404;24.920;2022-11-15T18:29:58;17.93;;;6.50;;
70122;SDS011;57489;37.404;24.920;2022-11-15T18:34:59;17.75;;;6.10;;
70122;SDS011;57489;37.404;24.920;2022-11-15T18:39:59;14.10;;;5.27;;
70122;SDS011;57489;37.404;24.920;2022-11-15T18:45:00;13.77;;;5.23;;
70122;SDS011;57489;37.404;24.920;2022-11-15T18:50:00;13.20;;;5.60;;
70122;SDS011;57489;37.404;24.920;2022-11-15T18:55:00;13.57;;;5.50;;
70122;SDS011;57489;37.404;24.920;2022-11-15T19:00:01;13.40;;;5.70;;
70122;SDS011;57489;37.404;24.920;2022-11-15T19:05:02;14.52;;;5.60;;
70122;SDS011;57489;37.404;24.920;2022-11-15T19:10:03;17.50;;;6.03;;
70122;SDS011;57489;37.404;24.920;2022-11-15T19:15:04;14.18;;;5.25;;
70122;SDS011;57489;37.404;24.920;2022-11-15T19:20:05;13.30;;;5.43;;
70122;SDS011;57489;37.404;24.920;2022-11-15T19:25:06;13.15;;;5.43;;
70122;SDS011;57489;37.404;24.920;2022-11-15T19:30:07;17.03;;;6.17;;
70122;SDS011;57489;37.404;24.920;2022-11-15T19:35:08;14.38;;;5.93;;
70122;SDS011;57489;37.404;24.920;2022-11-15T19:40:08;16.07;;;5.80;;
70122;SDS011;57489;37.404;24.920;2022-11-15T19:45:09;14.45;;;6.55;;
70122;SDS011;57489;37.404;24.920;2022-11-15T19:50:10;15.50;;;6.37;;
70122;SDS011;57489;37.404;24.920;2022-11-15T19:55:10;15.77;;;6.17;;
70122;SDS011;57489;37.404;24.920;2022-11-15T20:00:11;13.07;;;5.80;;
70122;SDS011;57489;37.404;24.920;2022-11-15T20:05:12;10.83;;;5.80;;
70122;SDS011;57489;37.404;24.920;2022-11-15T20:10:13;13.50;;;5.90;;
70122;SDS011;57489;37.404;24.920;2022-11-15T20:15:14;12.73;;;5.90;;
70122;SDS011;57489;37.404;24.920;2022-11-15T20:20:14;12.30;;;5.70;;
70122;SDS011;57489;37.404;24.920;2022-11-15T20:25:15;11.82;;;5.35;;
70122;SDS011;57489;37.404;24.920;2022-11-15T20:30:16;12.77;;;6.10;;
70122;SDS011;57489;37.404;24.920;2022-11-15T20:35:17;11.93;;;5.47;;
70122;SDS011;57489;37.404;24.920;2022-11-15T20:40:17;11.03;;;5.17;;
70122;SDS011;57489;37.404;24.920;2022-11-15T20:45:18;12.50;;;5.87;;
70122;SDS011;57489;37.404;24.920;2022-11-15T20:50:19;13.27;;;6.05;;
70122;SDS011;57489;37.404;24.920;2022-11-15T20:55:19;16.03;;;6.33;;
70122;SDS011;57489;37.404;24.920;2022-11-15T21:00:20;10.57;;;5.20;;
70122;SDS011;57489;37.404;24.920;2022-11-15T21:05:20;11.77;;;5.83;;
70122;SDS011;57489;37.404;24.920;2022-11-15T21:10:21;10.47;;;5.37;;
70122;SDS011;57489;37.404;24.920;2022-11-15T21:15:21;13.85;;;5.57;;
70122;SDS011;57489;37.404;24.920;2022-11-15T21:20:22;16.13;;;6.23;;
70122;SDS011;57489;37.404;24.920;2022-11-15T21:25:22;14.57;;;6.83;;
70122;SDS011;57489;37.404;24.920;2022-11-15T21:30:23;16.47;;;6.97;;
70122;SDS011;57489;37.404;24.920;2022-11-15T21:35:24;21.30;;;7.30;;
70122;SDS011;57489;37.404;24.920;2022-11-15T21:40:24;19.80;;;7.55;;
70122;SDS011;57489;37.404;24.920;2022-11-15T21:45:25;17.33;;;7.13;;
70122;SDS011;57489;37.404;24.920;2022-11-15T21:50:25;12.63;;;6.70;;
70122;SDS011;57489;37.404;24.920;2022-11-15T21:55:26;15.40;;;6.43;;
70122;SDS011;57489;37.404;24.920;2022-11-15T22:00:26;19.07;;;6.87;;
70122;SDS011;57489;37.404;24.920;2022-11-15T22:05:27;16.57;;;6.90;;
70122;SDS011;57489;37.404;24.920;2022-11-15T22:10:27;17.13;;;7.00;;
70122;SDS011;57489;37.404;24.920;2022-11-15T22:15:28;18.98;;;8.00;;
70122;SDS011;57489;37.404;24.920;2022-11-15T22:20:28;15.27;;;7.07;;
70122;SDS011;57489;37.404;24.920;2022-11-15T22:25:29;14.90;;;7.27;;
70122;SDS011;57489;37.404;24.920;2022-11-15T22:30:29;16.13;;;6.67;;
70122;SDS011;57489;37.404;24.920;2022-11-15T22:35:30;15.63;;;7.20;;
70122;SDS011;57489;37.404;24.920;2022-11-15T22:40:30;18.60;;;7.37;;
70122;SDS011;57489;37.404;24.920;2022-11-15T22:45:32;14.20;;;7.00;;
70122;SDS011;57489;37.404;24.920;2022-11-15T22:50:33;16.43;;;6.77;;
70122;SDS011;57489;37.404;24.920;2022-11-15T22:55:33;14.23;;;6.27;;
70122;SDS011;57489;37.404;24.920;2022-11-15T23:00:36;16.43;;;6.77;;
70122;SDS011;57489;37.404;24.920;2022-11-15T23:05:36;16.63;;;7.40;;
70122;SDS011;57489;37.404;24.920;2022-11-15T23:10:37;13.57;;;6.40;;
70122;SDS011;57489;37.404;24.920;2022-11-15T23:15:38;12.83;;;5.83;;
70122;SDS011;57489;37.404;24.920;2022-11-15T23:20:39;12.53;;;6.00;;
70122;SDS011;57489;37.404;24.920;2022-11-15T23:25:40;15.82;;;6.32;;
70122;SDS011;57489;37.404;24.920;2022-11-15T23:30:41;17.55;;;6.05;;
70122;SDS011;57489;37.404;24.920;2022-11-15T23:35:41;15.27;;;6.50;;
70122;SDS011;57489;37.404;24.920;2022-11-15T23:40:42;13.23;;;5.80;;
70122;SDS011;57489;37.404;24.920;2022-11-15T23:45:42;12.23;;;5.77;;
70122;SDS011;57489;37.404;24.920;2022-11-15T23:50:45;13.80;;;6.23;;
70122;SDS011;57489;37.404;24.920;2022-11-15T23:56:09;12.05;;;5.28;;
